createdAt,value
2022-09-28T00:00:11.627Z,65.88
2022-09-28T00:01:36.260Z,66.13
2022-09-28T00:02:38.006Z,65.48
2022-09-28T00:03:39.853Z,64.52
2022-09-28T00:04:41.474Z,63.55
2022-09-28T00:05:43.050Z,62.94
2022-09-28T00:06:44.671Z,62.14
2022-09-28T00:07:46.873Z,61.53
2022-09-28T00:08:51.418Z,61.08
2022-09-28T00:09:53.213Z,60.84
2022-09-28T00:10:56.136Z,60.39
2022-09-28T00:11:58.137Z,60.19
2022-09-28T00:13:01.391Z,59.88
2022-09-28T00:14:03.703Z,59.62
2022-09-28T00:15:05.677Z,59.53
2022-09-28T00:16:11.388Z,58.85
2022-09-28T00:17:13.125Z,58.28
2022-09-28T00:18:14.995Z,58.67
2022-09-28T00:19:16.688Z,59.73
2022-09-28T00:20:19.439Z,61.33
2022-09-28T00:21:27.392Z,62.54
2022-09-28T00:22:29.015Z,64.66
2022-09-28T00:23:30.638Z,65.49
2022-09-28T00:24:32.502Z,65.19
2022-09-28T00:25:34.146Z,64.44
2022-09-28T00:26:35.855Z,63.65
2022-09-28T00:27:37.472Z,62.97
2022-09-28T00:28:39.080Z,62.33
2022-09-28T00:29:41.623Z,61.64
2022-09-28T00:30:43.230Z,61.24
2022-09-28T00:31:45.789Z,61.04
2022-09-28T00:32:48.267Z,60.67
2022-09-28T00:33:56.760Z,60.22
2022-09-28T00:34:58.885Z,59.98
2022-09-28T00:36:01.636Z,59.80
2022-09-28T00:37:06.298Z,59.60
2022-09-28T00:38:09.319Z,59.29
2022-09-28T00:39:13.860Z,58.52
2022-09-28T00:40:18.440Z,58.56
2022-09-28T00:41:20.882Z,59.47
2022-09-28T00:42:27.990Z,60.17
2022-09-28T00:43:29.975Z,61.92
2022-09-28T00:44:38.668Z,63.43
2022-09-28T00:45:41.465Z,65.71
2022-09-28T00:46:44.251Z,65.87
2022-09-28T00:47:55.365Z,65.61
2022-09-28T00:49:08.748Z,64.73
2022-09-28T00:50:30.103Z,63.77
2022-09-28T00:51:42.396Z,62.71
2022-09-28T00:53:01.878Z,62.17
2022-09-28T00:54:07.693Z,61.60
2022-09-28T00:55:16.555Z,61.07
2022-09-28T00:56:24.758Z,60.73
2022-09-28T00:57:32.304Z,60.42
2022-09-28T00:58:48.657Z,60.16
2022-09-28T00:59:55.879Z,59.79
2022-09-28T01:01:01.230Z,59.66
2022-09-28T01:02:07.083Z,59.30
2022-09-28T01:03:14.268Z,58.51
2022-09-28T01:04:17.495Z,58.45
2022-09-28T01:05:22.181Z,59.20
2022-09-28T01:06:29.021Z,60.61
2022-09-28T01:07:34.995Z,61.82
2022-09-28T01:08:40.268Z,63.35
2022-09-28T01:09:45.822Z,65.45
2022-09-28T01:10:48.981Z,66.04
2022-09-28T01:11:52.107Z,65.69
2022-09-28T01:12:55.623Z,64.88
2022-09-28T01:13:58.537Z,63.80
2022-09-28T01:15:02.085Z,63.05
2022-09-28T01:16:23.409Z,62.55
2022-09-28T01:17:39.818Z,61.65
2022-09-28T01:19:07.176Z,61.18
2022-09-28T01:20:26.746Z,60.70
2022-09-28T01:21:28.654Z,60.25
2022-09-28T01:23:19.604Z,59.97
2022-09-28T01:24:40.783Z,59.53
2022-09-28T01:25:59.502Z,58.92
2022-09-28T01:27:20.714Z,58.20
2022-09-28T01:28:27.992Z,59.30
2022-09-28T01:29:49.510Z,60.77
2022-09-28T01:30:57.991Z,62.42
2022-09-28T01:32:22.380Z,63.91
2022-09-28T01:33:37.075Z,65.26
2022-09-28T01:34:52.581Z,64.89
2022-09-28T01:36:02.606Z,64.10
2022-09-28T01:37:13.094Z,63.13
2022-09-28T01:38:19.933Z,62.27
2022-09-28T01:39:34.878Z,61.71
2022-09-28T01:40:37.738Z,61.18
2022-09-28T01:41:42.446Z,60.85
2022-09-28T01:42:48.616Z,60.60
2022-09-28T01:43:56.074Z,60.17
2022-09-28T01:45:13.085Z,59.90
2022-09-28T01:46:25.230Z,59.57
2022-09-28T01:47:33.873Z,59.19
2022-09-28T01:48:42.741Z,58.45
2022-09-28T01:49:52.289Z,58.79
2022-09-28T01:51:00.693Z,59.83
2022-09-28T01:52:16.466Z,60.75
2022-09-28T01:53:28.751Z,62.70
2022-09-28T01:54:51.960Z,64.76
2022-09-28T01:56:11.651Z,65.74
2022-09-28T01:57:21.633Z,65.05
2022-09-28T01:58:36.226Z,64.03
2022-09-28T01:59:46.365Z,62.97
2022-09-28T02:00:58.139Z,62.05
2022-09-28T02:02:08.704Z,61.39
2022-09-28T02:03:42.223Z,60.84
2022-09-28T02:04:58.583Z,60.27
2022-09-28T02:06:16.319Z,59.90
2022-09-28T02:07:39.430Z,59.47
2022-09-28T02:08:56.051Z,58.53
2022-09-28T02:10:13.332Z,58.27
2022-09-28T02:11:19.489Z,59.70
2022-09-28T02:12:32.933Z,61.31
2022-09-28T02:13:48.142Z,62.70
2022-09-28T02:14:59.539Z,64.90
2022-09-28T02:16:18.690Z,65.47
2022-09-28T02:17:20.982Z,64.75
2022-09-28T02:18:23.225Z,63.76
2022-09-28T02:19:32.285Z,62.83
2022-09-28T02:20:38.275Z,62.00
2022-09-28T02:22:12.618Z,61.22
2022-09-28T02:23:16.210Z,60.33
2022-09-28T02:24:27.210Z,59.88
2022-09-28T02:25:39.578Z,59.65
2022-09-28T02:26:47.874Z,58.78
2022-09-28T02:28:05.695Z,58.03
2022-09-28T02:29:08.255Z,58.85
2022-09-28T02:30:10.632Z,60.00
2022-09-28T02:31:12.518Z,61.43
2022-09-28T02:32:17.026Z,62.92
2022-09-28T02:33:41.172Z,64.58
2022-09-28T02:34:42.999Z,65.02
2022-09-28T02:35:45.061Z,64.34
2022-09-28T02:36:47.147Z,63.31
2022-09-28T02:37:50.159Z,62.24
2022-09-28T02:38:53.072Z,61.42
2022-09-28T02:39:54.745Z,60.65
2022-09-28T02:41:20.907Z,60.00
2022-09-28T02:42:39.562Z,59.21
2022-09-28T02:44:06.278Z,58.04
2022-09-28T02:45:22.057Z,58.69
2022-09-28T02:46:42.632Z,59.70
2022-09-28T02:48:41.298Z,61.61
2022-09-28T02:50:07.011Z,64.05
2022-09-28T02:51:41.080Z,64.94
2022-09-28T02:53:20.094Z,63.72
2022-09-28T02:54:49.852Z,62.15
2022-09-28T02:56:16.546Z,60.84
2022-09-28T02:57:42.217Z,60.08
2022-09-28T02:59:13.063Z,59.35
2022-09-28T03:00:22.707Z,57.86
2022-09-28T03:01:30.560Z,57.95
2022-09-28T03:02:44.293Z,58.99
2022-09-28T03:03:55.434Z,60.52
2022-09-28T03:05:13.378Z,61.97
2022-09-28T03:06:26.621Z,63.33
2022-09-28T03:07:41.731Z,64.92
2022-09-28T03:09:02.313Z,64.98
2022-09-28T03:10:21.969Z,63.83
2022-09-28T03:11:36.438Z,62.69
2022-09-28T03:12:39.722Z,61.65
2022-09-28T03:13:42.562Z,61.00
2022-09-28T03:14:45.596Z,60.31
2022-09-28T03:15:49.026Z,60.08
2022-09-28T03:16:52.657Z,59.59
2022-09-28T03:17:54.786Z,59.11
2022-09-28T03:18:56.487Z,58.18
2022-09-28T03:19:58.305Z,58.13
2022-09-28T03:21:01.638Z,59.12
2022-09-28T03:22:05.623Z,60.38
2022-09-28T03:23:23.675Z,61.67
2022-09-28T03:24:26.880Z,63.47
2022-09-28T03:25:28.744Z,65.35
2022-09-28T03:26:30.570Z,65.79
2022-09-28T03:27:32.484Z,65.38
2022-09-28T03:28:36.207Z,64.56
2022-09-28T03:29:40.483Z,63.41
2022-09-28T03:30:43.441Z,62.51
2022-09-28T03:31:45.331Z,61.82
2022-09-28T03:32:47.209Z,61.23
2022-09-28T03:33:48.937Z,60.68
2022-09-28T03:34:50.684Z,60.38
2022-09-28T03:35:52.349Z,59.88
2022-09-28T03:36:54.060Z,59.41
2022-09-28T03:37:57.120Z,58.66
2022-09-28T03:38:59.819Z,58.07
2022-09-28T03:40:02.072Z,58.60
2022-09-28T03:41:04.240Z,59.62
2022-09-28T03:42:09.169Z,60.86
2022-09-28T03:43:13.294Z,61.74
2022-09-28T03:44:15.339Z,63.25
2022-09-28T03:45:17.042Z,64.99
2022-09-28T03:46:20.011Z,65.44
2022-09-28T03:47:24.419Z,64.94
2022-09-28T03:48:32.386Z,63.90
2022-09-28T03:49:35.471Z,62.68
2022-09-28T03:50:37.233Z,61.97
2022-09-28T03:51:39.004Z,60.97
2022-09-28T03:52:41.022Z,60.23
2022-09-28T03:53:43.812Z,59.65
2022-09-28T03:54:49.255Z,58.92
2022-09-28T03:55:53.239Z,57.89
2022-09-28T03:56:54.973Z,58.12
2022-09-28T03:57:56.691Z,58.99
2022-09-28T03:58:58.380Z,60.20
2022-09-28T04:00:00.977Z,61.38
2022-09-28T04:01:16.629Z,62.57
2022-09-28T04:02:19.588Z,64.21
2022-09-28T04:03:21.286Z,65.06
2022-09-28T04:04:24.345Z,64.66
2022-09-28T04:05:25.992Z,63.75
2022-09-28T04:06:27.944Z,62.94
2022-09-28T04:07:31.271Z,62.12
2022-09-28T04:08:33.705Z,61.13
2022-09-28T04:09:35.319Z,60.48
2022-09-28T04:10:37.065Z,60.09
2022-09-28T04:11:59.765Z,59.49
2022-09-28T04:13:00.260Z,58.35
2022-09-28T04:14:02.055Z,58.01
2022-09-28T04:15:05.646Z,58.55
2022-09-28T04:16:07.489Z,59.76
2022-09-28T04:17:10.160Z,60.98
2022-09-28T04:18:13.518Z,61.97
2022-09-28T04:19:33.822Z,64.52
2022-09-28T04:21:06.765Z,65.71
2022-09-28T04:22:12.419Z,65.21
2022-09-28T04:23:15.809Z,64.41
2022-09-28T04:24:20.230Z,63.62
2022-09-28T04:25:22.278Z,62.43
2022-09-28T04:26:26.015Z,61.61
2022-09-28T04:27:47.068Z,60.94
2022-09-28T04:29:07.721Z,60.20
2022-09-28T04:30:11.182Z,59.63
2022-09-28T04:31:20.387Z,58.99
2022-09-28T04:32:22.402Z,58.03
2022-09-28T04:33:25.680Z,58.21
2022-09-28T04:34:31.887Z,59.36
2022-09-28T04:35:36.980Z,60.72
2022-09-28T04:36:38.629Z,61.78
2022-09-28T04:37:40.409Z,63.29
2022-09-28T04:38:52.787Z,65.05
2022-09-28T04:39:55.975Z,65.55
2022-09-28T04:40:57.694Z,64.85
2022-09-28T04:41:59.899Z,63.82
2022-09-28T04:43:02.316Z,62.70
2022-09-28T04:44:05.130Z,61.72
2022-09-28T04:45:07.453Z,60.95
2022-09-28T04:46:12.898Z,60.20
2022-09-28T04:47:25.696Z,59.47
2022-09-28T04:48:28.334Z,58.53
2022-09-28T04:50:13.574Z,58.14
2022-09-28T04:51:35.177Z,59.17
2022-09-28T04:52:37.608Z,60.23
2022-09-28T04:53:39.437Z,61.69
2022-09-28T04:54:41.110Z,63.01
2022-09-28T04:55:43.157Z,64.50
2022-09-28T04:56:45.142Z,64.96
2022-09-28T04:57:47.401Z,64.33
2022-09-28T04:58:52.752Z,63.31
2022-09-28T04:59:57.350Z,62.20
2022-09-28T05:01:03.047Z,61.23
2022-09-28T05:02:30.634Z,60.08
2022-09-28T05:03:58.598Z,59.05
2022-09-28T05:05:12.644Z,57.94
2022-09-28T05:07:10.454Z,58.95
2022-09-28T05:08:13.075Z,59.95
2022-09-28T05:09:15.263Z,61.23
2022-09-28T05:10:18.642Z,62.08
2022-09-28T05:11:21.623Z,63.80
2022-09-28T05:12:24.253Z,65.24
2022-09-28T05:13:27.123Z,65.31
2022-09-28T05:14:28.824Z,64.49
2022-09-28T05:15:31.014Z,63.38
2022-09-28T05:16:33.951Z,62.34
2022-09-28T05:17:53.968Z,61.07
2022-09-28T05:19:16.127Z,60.19
2022-09-28T05:20:17.783Z,59.56
2022-09-28T05:21:20.077Z,58.90
2022-09-28T05:22:21.762Z,57.89
2022-09-28T05:23:23.426Z,58.12
2022-09-28T05:24:31.894Z,58.90
2022-09-28T05:25:34.064Z,59.91
2022-09-28T05:26:41.529Z,60.58
2022-09-28T05:27:44.865Z,62.31
2022-09-28T05:29:03.246Z,64.68
2022-09-28T05:30:24.224Z,65.86
2022-09-28T05:31:56.372Z,65.12
2022-09-28T05:33:14.335Z,64.27
2022-09-28T05:34:19.184Z,63.39
2022-09-28T05:35:21.105Z,62.67
2022-09-28T05:36:24.601Z,61.98
2022-09-28T05:37:26.241Z,61.30
2022-09-28T05:38:28.393Z,60.80
2022-09-28T05:39:31.048Z,60.31
2022-09-28T05:40:32.975Z,59.98
2022-09-28T05:41:34.758Z,59.66
2022-09-28T05:42:36.738Z,59.18
2022-09-28T05:43:38.816Z,58.34
2022-09-28T05:44:40.657Z,58.35
2022-09-28T05:45:42.665Z,59.26
2022-09-28T05:46:44.383Z,60.26
2022-09-28T05:47:46.909Z,61.44
2022-09-28T05:48:54.293Z,62.59
2022-09-28T05:49:56.422Z,64.55
2022-09-28T05:50:58.818Z,65.71
2022-09-28T05:52:01.463Z,65.61
2022-09-28T05:53:06.707Z,64.96
2022-09-28T05:54:09.143Z,64.02
2022-09-28T05:55:15.778Z,62.82
2022-09-28T05:56:18.024Z,61.90
2022-09-28T05:57:20.204Z,61.27
2022-09-28T05:58:21.859Z,60.80
2022-09-28T05:59:23.516Z,60.14
2022-09-28T06:00:26.737Z,59.69
2022-09-28T06:01:29.405Z,59.20
2022-09-28T06:02:33.161Z,58.25
2022-09-28T06:03:34.891Z,58.15
2022-09-28T06:04:36.632Z,58.85
2022-09-28T06:05:39.664Z,60.12
2022-09-28T06:06:41.438Z,61.25
2022-09-28T06:07:43.495Z,62.41
2022-09-28T06:08:46.343Z,63.83
2022-09-28T06:10:08.725Z,65.45
2022-09-28T06:11:16.294Z,64.96
2022-09-28T06:12:18.324Z,64.05
2022-09-28T06:13:23.035Z,62.96
2022-09-28T06:14:26.263Z,62.12
2022-09-28T06:15:30.833Z,61.29
2022-09-28T06:16:34.896Z,60.51
2022-09-28T06:17:36.637Z,59.89
2022-09-28T06:18:56.951Z,59.34
2022-09-28T06:20:18.626Z,58.05
2022-09-28T06:21:31.533Z,57.99
2022-09-28T06:22:33.320Z,59.03
2022-09-28T06:23:40.488Z,60.37
2022-09-28T06:24:42.681Z,61.67
2022-09-28T06:25:44.369Z,62.82
2022-09-28T06:26:46.043Z,64.20
2022-09-28T06:27:59.160Z,64.85
2022-09-28T06:29:00.947Z,64.28
2022-09-28T06:30:03.010Z,63.24
2022-09-28T06:31:05.383Z,62.20
2022-09-28T06:32:09.986Z,61.05
2022-09-28T06:33:14.994Z,60.53
2022-09-28T06:34:18.053Z,59.95
2022-09-28T06:35:20.562Z,59.09
2022-09-28T06:36:22.382Z,57.93
2022-09-28T06:37:26.070Z,57.86
2022-09-28T06:38:27.844Z,58.56
2022-09-28T06:39:29.891Z,59.87
2022-09-28T06:40:33.402Z,60.87
2022-09-28T06:41:35.148Z,62.07
2022-09-28T06:43:10.533Z,63.53
2022-09-28T06:44:31.586Z,65.37
2022-09-28T06:45:53.807Z,64.75
2022-09-28T06:47:01.220Z,63.81
2022-09-28T06:48:31.750Z,62.38
2022-09-28T06:49:33.542Z,61.42
2022-09-28T06:50:44.995Z,60.52
2022-09-28T06:51:59.174Z,59.84
2022-09-28T06:53:56.879Z,58.21
2022-09-28T06:55:17.103Z,57.84
2022-09-28T06:56:22.107Z,58.51
2022-09-28T06:57:24.238Z,59.44
2022-09-28T06:58:28.195Z,60.73
2022-09-28T06:59:32.412Z,61.71
2022-09-28T07:00:37.913Z,62.10
2022-09-28T07:01:39.591Z,63.82
2022-09-28T07:03:21.746Z,65.88
2022-09-28T07:04:34.782Z,65.52
2022-09-28T07:05:56.411Z,64.17
2022-09-28T07:07:18.328Z,62.69
2022-09-28T07:08:38.841Z,61.53
2022-09-28T07:09:59.132Z,60.58
2022-09-28T07:11:15.625Z,59.48
2022-09-28T07:12:25.398Z,58.45
2022-09-28T07:13:53.434Z,57.62
2022-09-28T07:14:57.640Z,58.22
2022-09-28T07:16:01.954Z,59.06
2022-09-28T07:17:13.533Z,60.18
2022-09-28T07:18:18.706Z,62.09
2022-09-28T07:19:20.471Z,63.71
2022-09-28T07:20:22.073Z,64.57
2022-09-28T07:21:29.621Z,64.81
2022-09-28T07:22:42.827Z,64.31
2022-09-28T07:23:53.518Z,63.35
2022-09-28T07:24:57.091Z,62.18
2022-09-28T07:26:20.355Z,61.08
2022-09-28T07:28:13.546Z,59.94
2022-09-28T07:29:44.620Z,58.71
2022-09-28T07:31:33.761Z,57.24
2022-09-28T07:32:55.053Z,58.38
2022-09-28T07:34:04.241Z,59.27
2022-09-28T07:35:28.102Z,60.26
2022-09-28T07:36:34.999Z,61.79
2022-09-28T07:37:37.590Z,62.89
2022-09-28T07:38:39.334Z,64.16
2022-09-28T07:40:00.498Z,64.84
2022-09-28T07:41:14.018Z,64.61
2022-09-28T07:42:21.295Z,63.00
2022-09-28T07:43:23.391Z,61.96
2022-09-28T07:44:26.852Z,60.71
2022-09-28T07:45:30.184Z,60.04
2022-09-28T07:46:34.095Z,58.89
2022-09-28T07:47:40.858Z,57.61
2022-09-28T07:48:51.755Z,57.81
2022-09-28T07:49:59.683Z,58.31
2022-09-28T07:51:21.327Z,59.35
2022-09-28T07:52:50.750Z,61.09
2022-09-28T07:54:04.240Z,62.47
2022-09-28T07:55:23.898Z,63.99
2022-09-28T07:56:40.852Z,64.86
2022-09-28T07:58:01.729Z,64.04
2022-09-28T07:59:22.066Z,62.67
2022-09-28T08:01:10.836Z,61.08
2022-09-28T08:02:13.951Z,60.08
2022-09-28T08:03:18.096Z,59.49
2022-09-28T08:04:20.544Z,58.11
2022-09-28T08:05:22.272Z,57.04
2022-09-28T08:06:23.918Z,57.12
2022-09-28T08:07:26.049Z,58.03
2022-09-28T08:08:37.837Z,59.11
2022-09-28T08:09:40.155Z,59.74
2022-09-28T08:11:08.473Z,60.82
2022-09-28T08:12:22.428Z,61.97
2022-09-28T08:13:34.889Z,63.17
2022-09-28T08:15:17.445Z,65.36
2022-09-28T08:16:28.149Z,64.82
2022-09-28T08:17:47.286Z,63.15
2022-09-28T08:18:50.117Z,61.99
2022-09-28T08:20:10.461Z,61.15
2022-09-28T08:21:30.514Z,59.70
2022-09-28T08:22:32.593Z,58.16
2022-09-28T08:23:35.186Z,56.32
2022-09-28T08:24:37.016Z,55.87
2022-09-28T08:25:38.778Z,56.15
2022-09-28T08:26:43.086Z,57.46
2022-09-28T08:27:45.729Z,58.39
2022-09-28T08:28:47.850Z,59.31
2022-09-28T08:30:08.888Z,60.30
2022-09-28T08:31:15.179Z,60.68
2022-09-28T08:33:18.008Z,62.92
2022-09-28T08:34:41.379Z,64.24
2022-09-28T08:36:11.600Z,63.55
2022-09-28T08:38:03.374Z,61.84
2022-09-28T08:39:23.391Z,60.21
2022-09-28T08:41:04.488Z,58.50
2022-09-28T08:42:11.123Z,56.62
2022-09-28T08:44:25.529Z,57.08
2022-09-28T08:46:22.713Z,59.15
2022-09-28T08:48:07.308Z,59.87
2022-09-28T08:49:30.430Z,60.35
2022-09-28T08:51:50.132Z,61.28
2022-09-28T08:53:12.258Z,61.72
2022-09-28T08:54:46.007Z,62.08
2022-09-28T08:55:54.942Z,63.32
2022-09-28T08:57:14.409Z,64.54
2022-09-28T08:58:33.390Z,63.97
2022-09-28T08:59:47.581Z,62.64
2022-09-28T09:00:54.618Z,60.49
2022-09-28T09:02:03.953Z,57.91
2022-09-28T09:03:14.836Z,56.36
2022-09-28T09:04:19.886Z,56.36
2022-09-28T09:06:18.273Z,57.19
2022-09-28T09:08:22.760Z,58.05
2022-09-28T09:09:58.883Z,58.24
2022-09-28T09:11:44.428Z,58.60
2022-09-28T09:13:07.559Z,59.34
2022-09-28T09:14:27.190Z,59.84
2022-09-28T09:15:48.764Z,60.05
2022-09-28T09:17:44.159Z,60.51
2022-09-28T09:19:37.258Z,61.37
2022-09-28T09:21:39.041Z,62.31
2022-09-28T09:22:59.013Z,63.19
2022-09-28T09:24:18.219Z,64.60
2022-09-28T09:25:20.261Z,64.16
2022-09-28T09:26:39.233Z,63.05
2022-09-28T09:28:18.392Z,60.51
2022-09-28T09:29:22.910Z,58.49
2022-09-28T09:30:46.303Z,55.91
2022-09-28T09:32:03.848Z,55.17
2022-09-28T09:33:33.666Z,55.72
2022-09-28T09:35:31.512Z,56.08
2022-09-28T09:37:58.255Z,57.27
2022-09-28T09:39:32.270Z,57.93
2022-09-28T09:40:55.199Z,58.88
2022-09-28T09:42:35.681Z,59.29
2022-09-28T09:44:33.563Z,60.00
2022-09-28T09:46:16.849Z,60.59
2022-09-28T09:47:48.512Z,60.76
2022-09-28T09:49:06.717Z,61.44
2022-09-28T09:50:40.610Z,61.69
2022-09-28T09:51:54.831Z,62.19
2022-09-28T09:53:05.618Z,62.79
2022-09-28T09:54:26.699Z,63.43
2022-09-28T09:55:40.422Z,62.26
2022-09-28T09:57:22.717Z,59.65
2022-09-28T09:58:50.174Z,55.37
2022-09-28T10:00:16.355Z,53.58
2022-09-28T10:01:34.642Z,53.90
2022-09-28T10:02:53.464Z,54.06
2022-09-28T10:04:50.899Z,55.28
2022-09-28T10:06:05.649Z,56.49
2022-09-28T10:07:20.661Z,56.79
2022-09-28T10:08:26.935Z,56.61
2022-09-28T10:09:45.911Z,56.89
2022-09-28T10:11:15.473Z,57.58
2022-09-28T10:12:22.088Z,58.01
2022-09-28T10:13:24.017Z,58.08
2022-09-28T10:14:30.014Z,58.11
2022-09-28T10:15:42.679Z,58.79
2022-09-28T10:16:53.103Z,58.83
2022-09-28T10:18:39.029Z,58.93
2022-09-28T10:20:37.010Z,59.18
2022-09-28T10:21:51.798Z,59.17
2022-09-28T10:23:02.232Z,59.33
2022-09-28T10:24:04.389Z,59.37
2022-09-28T10:25:08.939Z,59.35
2022-09-28T10:26:25.338Z,59.30
2022-09-28T10:27:35.115Z,59.20
2022-09-28T10:28:48.110Z,59.40
2022-09-28T10:29:59.187Z,59.74
2022-09-28T10:31:41.916Z,59.94
2022-09-28T10:32:59.107Z,60.44
2022-09-28T10:34:05.558Z,60.28
2022-09-28T10:35:24.645Z,59.88
2022-09-28T10:36:38.598Z,59.56
2022-09-28T10:37:55.190Z,58.91
2022-09-28T10:39:45.884Z,59.12
2022-09-28T10:40:51.250Z,59.61
2022-09-28T10:42:13.421Z,59.64
2022-09-28T10:43:18.914Z,59.50
2022-09-28T10:44:22.829Z,59.98
2022-09-28T10:45:37.416Z,59.70
2022-09-28T10:46:39.639Z,58.91
2022-09-28T10:47:46.034Z,58.86
2022-09-28T10:48:58.450Z,58.98
2022-09-28T10:50:03.686Z,58.64
2022-09-28T10:51:07.728Z,57.72
2022-09-28T10:52:31.113Z,57.33
2022-09-28T10:53:36.971Z,57.23
2022-09-28T10:54:53.177Z,57.22
2022-09-28T10:56:22.750Z,56.59
2022-09-28T10:57:37.196Z,56.58
2022-09-28T10:58:42.915Z,56.26
2022-09-28T10:59:48.087Z,55.85
2022-09-28T11:01:26.447Z,55.09
2022-09-28T11:02:35.997Z,54.27
2022-09-28T11:04:08.049Z,53.75
2022-09-28T11:05:22.787Z,54.14
2022-09-28T11:06:36.964Z,54.52
2022-09-28T11:07:48.300Z,54.48
2022-09-28T11:08:59.767Z,54.02
2022-09-28T11:10:04.094Z,53.82
2022-09-28T11:11:09.583Z,53.59
2022-09-28T11:12:17.867Z,53.73
2022-09-28T11:13:19.681Z,54.31
2022-09-28T11:14:44.625Z,54.70
2022-09-28T11:15:51.169Z,54.07
2022-09-28T11:17:20.416Z,53.85
2022-09-28T11:18:31.407Z,52.08
2022-09-28T11:19:37.094Z,51.98
2022-09-28T11:20:44.296Z,52.03
2022-09-28T11:21:47.113Z,52.10
2022-09-28T11:22:53.366Z,52.28
2022-09-28T11:23:57.217Z,52.86
2022-09-28T11:25:22.383Z,53.06
2022-09-28T11:26:24.902Z,53.01
2022-09-28T11:27:28.630Z,53.16
2022-09-28T11:28:34.440Z,53.54
2022-09-28T11:29:43.284Z,53.98
2022-09-28T11:31:36.189Z,54.83
2022-09-28T11:32:45.412Z,54.69
2022-09-28T11:34:31.034Z,55.04
2022-09-28T11:36:03.391Z,55.60
2022-09-28T11:37:41.758Z,55.95
2022-09-28T11:38:55.629Z,56.53
2022-09-28T11:40:47.961Z,56.87
2022-09-28T11:42:02.071Z,56.96
2022-09-28T11:43:23.963Z,56.93
2022-09-28T11:44:44.897Z,56.91
2022-09-28T11:46:03.715Z,57.41
2022-09-28T11:47:29.968Z,57.70
2022-09-28T11:48:46.155Z,57.29
2022-09-28T11:49:58.873Z,56.63
2022-09-28T11:51:16.691Z,56.57
2022-09-28T11:52:30.907Z,56.53
2022-09-28T11:53:57.020Z,56.23
2022-09-28T11:55:06.693Z,55.55
2022-09-28T11:56:35.234Z,55.06
2022-09-28T11:57:42.236Z,53.45
2022-09-28T11:58:53.196Z,53.22
2022-09-28T12:00:10.359Z,53.19
2022-09-28T12:01:31.252Z,53.50
2022-09-28T12:03:12.236Z,53.79
2022-09-28T12:04:20.007Z,54.16
2022-09-28T12:05:31.798Z,54.26
2022-09-28T12:07:00.078Z,54.04
2022-09-28T12:08:19.956Z,54.40
2022-09-28T12:09:59.988Z,54.33
2022-09-28T12:11:32.495Z,54.11
2022-09-28T12:13:10.180Z,54.47
2022-09-28T12:14:23.332Z,54.52
2022-09-28T12:15:52.821Z,54.76
2022-09-28T12:17:25.132Z,55.20
2022-09-28T12:19:07.349Z,55.50
2022-09-28T12:20:30.884Z,56.10
2022-09-28T12:21:56.480Z,56.89
2022-09-28T12:23:15.443Z,57.12
2022-09-28T12:24:32.235Z,57.23
2022-09-28T12:25:46.699Z,56.87
2022-09-28T12:27:04.790Z,56.88
2022-09-28T12:28:32.383Z,56.97
2022-09-28T12:29:43.487Z,56.75
2022-09-28T12:30:48.886Z,56.33
2022-09-28T12:32:38.530Z,55.89
2022-09-28T12:33:45.714Z,54.97
2022-09-28T12:34:47.540Z,54.97
2022-09-28T12:36:26.577Z,54.84
2022-09-28T12:38:08.828Z,54.64
2022-09-28T12:39:56.480Z,53.83
2022-09-28T12:40:58.929Z,53.37
2022-09-28T12:42:42.349Z,53.52
2022-09-28T12:44:03.877Z,53.37
2022-09-28T12:45:05.480Z,53.57
2022-09-28T12:46:37.252Z,53.91
2022-09-28T12:47:57.228Z,53.88
2022-09-28T12:49:51.565Z,54.15
2022-09-28T12:50:56.219Z,54.46
2022-09-28T12:52:29.684Z,54.72
2022-09-28T12:53:50.024Z,54.86
2022-09-28T12:55:14.224Z,54.83
2022-09-28T12:56:35.262Z,54.79
2022-09-28T12:57:47.748Z,54.03
2022-09-28T12:59:00.704Z,54.17
2022-09-28T13:00:11.609Z,54.23
2022-09-28T13:01:32.900Z,54.57
2022-09-28T13:02:49.575Z,54.68
2022-09-28T13:04:07.580Z,55.10
2022-09-28T13:05:29.231Z,55.58
2022-09-28T13:06:37.241Z,55.97
2022-09-28T13:08:02.593Z,56.06
2022-09-28T13:09:17.230Z,56.35
2022-09-28T13:10:34.075Z,56.61
2022-09-28T13:12:04.074Z,56.93
2022-09-28T13:13:11.608Z,57.44
2022-09-28T13:14:49.061Z,57.59
2022-09-28T13:16:11.920Z,57.96
2022-09-28T13:17:32.065Z,58.05
2022-09-28T13:19:01.595Z,58.09
2022-09-28T13:20:21.515Z,58.49
2022-09-28T13:21:40.922Z,58.36
2022-09-28T13:23:15.089Z,58.02
2022-09-28T13:24:34.084Z,58.07
2022-09-28T13:25:41.438Z,57.90
2022-09-28T13:26:47.362Z,57.46
2022-09-28T13:28:01.122Z,57.42
2022-09-28T13:29:13.055Z,56.97
2022-09-28T13:30:19.204Z,56.67
2022-09-28T13:31:32.465Z,56.76
2022-09-28T13:32:38.891Z,56.47
2022-09-28T13:33:45.485Z,56.29
2022-09-28T13:34:50.497Z,56.43
2022-09-28T13:35:52.116Z,56.66
2022-09-28T13:37:20.262Z,56.84
2022-09-28T13:38:21.802Z,56.85
2022-09-28T13:39:52.146Z,56.68
2022-09-28T13:41:14.164Z,56.55
2022-09-28T13:42:52.602Z,56.34
2022-09-28T13:44:00.239Z,56.31
2022-09-28T13:45:21.224Z,56.40
2022-09-28T13:46:39.828Z,56.71
2022-09-28T13:48:11.468Z,56.79
2022-09-28T13:50:02.789Z,56.72
2022-09-28T13:51:32.197Z,56.35
2022-09-28T13:52:43.453Z,56.30
2022-09-28T13:54:00.114Z,56.29
2022-09-28T13:55:23.633Z,56.41
2022-09-28T13:56:36.902Z,56.76
2022-09-28T13:57:51.979Z,56.87
2022-09-28T13:59:02.320Z,56.81
2022-09-28T14:00:17.434Z,56.80
2022-09-28T14:01:26.774Z,56.99
2022-09-28T14:02:41.115Z,57.21
2022-09-28T14:04:09.555Z,57.52
2022-09-28T14:05:23.131Z,57.67
2022-09-28T14:06:31.629Z,57.78
2022-09-28T14:07:36.363Z,57.92
2022-09-28T14:08:45.159Z,57.89
2022-09-28T14:09:48.168Z,57.82
2022-09-28T14:10:55.902Z,57.94
2022-09-28T14:11:59.211Z,58.05
2022-09-28T14:13:03.146Z,58.29
2022-09-28T14:14:14.109Z,58.31
2022-09-28T14:15:37.574Z,58.24
2022-09-28T14:16:42.084Z,58.17
2022-09-28T14:17:43.597Z,58.22
2022-09-28T14:18:54.554Z,58.68
2022-09-28T14:20:10.491Z,59.30
2022-09-28T14:21:52.690Z,60.06
2022-09-28T14:23:27.233Z,60.82
2022-09-28T14:24:55.537Z,60.83
2022-09-28T14:26:25.702Z,60.82
2022-09-28T14:27:36.326Z,61.00
2022-09-28T14:29:02.083Z,61.42
2022-09-28T14:30:06.567Z,61.62
2022-09-28T14:31:19.872Z,61.80
2022-09-28T14:32:24.936Z,62.08
2022-09-28T14:33:27.711Z,62.26
2022-09-28T14:34:37.798Z,62.40
2022-09-28T14:35:41.594Z,62.71
2022-09-28T14:37:07.850Z,63.70
2022-09-28T14:38:35.935Z,64.09
2022-09-28T14:39:57.089Z,61.07
2022-09-28T14:41:09.955Z,59.25
2022-09-28T14:42:21.601Z,56.54
2022-09-28T14:43:46.514Z,55.31
2022-09-28T14:45:06.381Z,55.32
2022-09-28T14:46:12.297Z,56.01
2022-09-28T14:47:36.283Z,56.61
2022-09-28T14:48:57.102Z,57.48
2022-09-28T14:50:20.658Z,58.05
2022-09-28T14:51:31.307Z,58.93
2022-09-28T14:52:42.887Z,59.55
2022-09-28T14:53:46.889Z,60.00
2022-09-28T14:54:53.403Z,60.48
2022-09-28T14:55:59.704Z,60.99
2022-09-28T14:57:08.000Z,61.39
2022-09-28T14:58:19.920Z,61.90
2022-09-28T14:59:35.886Z,62.57
2022-09-28T15:00:43.399Z,63.92
2022-09-28T15:01:57.716Z,64.25
2022-09-28T15:03:03.593Z,63.22
2022-09-28T15:04:12.753Z,61.62
2022-09-28T15:05:24.662Z,59.93
2022-09-28T15:06:28.921Z,57.99
2022-09-28T15:07:46.036Z,56.26
2022-09-28T15:08:47.792Z,55.95
2022-09-28T15:09:53.244Z,56.51
2022-09-28T15:10:57.969Z,57.32
2022-09-28T15:12:04.375Z,58.14
2022-09-28T15:13:23.797Z,58.90
2022-09-28T15:14:31.821Z,59.88
2022-09-28T15:15:40.916Z,60.67
2022-09-28T15:16:42.708Z,61.28
2022-09-28T15:17:57.529Z,61.68
2022-09-28T15:19:18.628Z,62.06
2022-09-28T15:20:30.113Z,62.67
2022-09-28T15:21:39.845Z,63.97
2022-09-28T15:22:57.135Z,64.11
2022-09-28T15:23:59.048Z,62.86
2022-09-28T15:25:04.259Z,61.60
2022-09-28T15:26:20.806Z,60.30
2022-09-28T15:27:23.273Z,58.45
2022-09-28T15:28:25.261Z,56.69
2022-09-28T15:29:31.167Z,56.12
2022-09-28T15:30:35.337Z,56.59
2022-09-28T15:31:37.117Z,57.36
2022-09-28T15:32:38.851Z,58.03
2022-09-28T15:34:00.338Z,58.82
2022-09-28T15:35:24.867Z,59.90
2022-09-28T15:36:31.064Z,60.88
2022-09-28T15:37:40.366Z,61.53
2022-09-28T15:38:44.368Z,62.27
2022-09-28T15:39:48.067Z,63.36
2022-09-28T15:40:50.539Z,64.39
2022-09-28T15:41:53.202Z,64.00
2022-09-28T15:42:59.109Z,62.80
2022-09-28T15:44:13.334Z,61.38
2022-09-28T15:45:30.725Z,59.98